YYR weather

Goose Bay Airport
Goose Bay, Newfoundland and Labrador, Canada

Public forecast

Using degrees Celsius for public forecast. Weather courtesy of forecast.io.

METAR (pilot weather report)

Retrieved 2019/05/24 18:00 UTC (19 minutes ago):

CYYR 241800Z 05013G18KT 15SM FEW060 FEW190 FEW280 15/M04 A2987 RMK CU1AC2CI1 SLP116

TAF (pilot weather forecast)

Retrieved 2019/05/24 18:37 UTC (0 seconds ago):

TAF CYYR 241730Z 2418/2518 01012KT P6SM FEW080 SCT180 FM242000 35012KT P6SM FEW025 SCT140 BECMG 2502/2504 30005KT FM250800 VRB03KT P6SM SKC FM251400 11005KT P6SM BKN040 RMK NXT FCST BY 250000Z